createdAt,value
2023-05-21T00:01:19.113Z,6.30
2023-05-21T00:03:47.292Z,7.40
2023-05-21T00:06:15.649Z,8.70
2023-05-21T00:08:43.228Z,8.10
2023-05-21T00:11:11.199Z,8.70
2023-05-21T00:13:38.759Z,5.90
2023-05-21T00:16:06.483Z,8.50
2023-05-21T00:18:34.697Z,8.60
2023-05-21T00:21:01.877Z,7.40
2023-05-21T00:23:30.440Z,8.30
2023-05-21T00:25:57.989Z,8.60
2023-05-21T00:28:25.189Z,9.10
2023-05-21T00:30:52.601Z,8.00
2023-05-21T00:33:22.002Z,6.90
2023-05-21T00:35:49.252Z,5.30
2023-05-21T00:38:17.977Z,5.40
2023-05-21T00:40:45.604Z,11.00
2023-05-21T00:43:14.599Z,8.40
2023-05-21T00:45:44.816Z,7.50
2023-05-21T00:48:13.098Z,9.60
2023-05-21T00:50:40.957Z,7.20
2023-05-21T00:53:10.259Z,7.60
2023-05-21T00:55:38.285Z,7.40
2023-05-21T00:58:06.096Z,6.80
2023-05-21T01:00:35.402Z,7.30
2023-05-21T01:03:03.404Z,6.90
2023-05-21T01:05:31.538Z,5.00
2023-05-21T01:08:00.077Z,8.30
2023-05-21T01:10:28.811Z,9.90
2023-05-21T01:12:59.342Z,10.80
2023-05-21T01:15:27.616Z,8.60
2023-05-21T01:17:56.081Z,6.60
2023-05-21T01:20:24.885Z,6.60
2023-05-21T01:22:55.278Z,7.10
2023-05-21T01:25:24.768Z,9.10
2023-05-21T01:27:52.334Z,8.60
2023-05-21T01:30:22.295Z,7.80
2023-05-21T01:32:54.750Z,5.60
2023-05-21T01:35:24.484Z,9.90
2023-05-21T01:37:56.886Z,7.20
2023-05-21T01:40:28.820Z,4.60
2023-05-21T01:42:56.683Z,7.40
2023-05-21T01:45:27.153Z,6.40
2023-05-21T01:47:57.200Z,8.70
2023-05-21T01:50:25.874Z,8.20
2023-05-21T01:52:55.408Z,6.60
2023-05-21T01:55:25.650Z,8.60
2023-05-21T01:57:53.963Z,8.60
2023-05-21T02:03:16.720Z,6.40
2023-05-21T02:05:44.125Z,6.50
2023-05-21T02:08:11.583Z,8.00
2023-05-21T02:10:41.937Z,5.30
2023-05-21T02:13:09.293Z,10.30
2023-05-21T02:15:36.605Z,7.60
2023-05-21T02:18:04.620Z,6.20
2023-05-21T02:20:32.152Z,4.60
2023-05-21T02:22:59.405Z,11.90
2023-05-21T02:25:26.584Z,6.60
2023-05-21T02:27:54.263Z,6.00
2023-05-21T02:30:21.510Z,6.90
2023-05-21T02:32:49.226Z,7.10
2023-05-21T02:35:17.012Z,5.50
2023-05-21T02:37:44.602Z,9.50
2023-05-21T02:40:13.318Z,8.30
2023-05-21T02:42:41.721Z,9.10
2023-05-21T02:45:12.302Z,8.30
2023-05-21T02:47:41.672Z,6.70
2023-05-21T02:50:11.451Z,8.40
2023-05-21T02:52:45.407Z,7.80
2023-05-21T02:55:13.421Z,6.80
2023-05-21T02:57:40.761Z,5.50
2023-05-21T03:00:10.700Z,7.90
2023-05-21T03:02:38.780Z,8.00
2023-05-21T03:05:07.241Z,5.70
2023-05-21T03:07:35.040Z,7.00
2023-05-21T03:10:05.394Z,6.90
2023-05-21T03:12:32.723Z,7.20
2023-05-21T03:15:00.203Z,10.70
2023-05-21T03:17:28.406Z,7.50
2023-05-21T03:19:56.259Z,6.20
2023-05-21T03:22:23.683Z,6.90
2023-05-21T03:24:51.949Z,7.10
2023-05-21T03:27:19.201Z,5.10
2023-05-21T03:29:48.103Z,6.10
2023-05-21T03:32:16.252Z,6.60
2023-05-21T03:34:51.925Z,11.40
2023-05-21T03:37:19.143Z,9.70
2023-05-21T03:39:46.555Z,5.90
2023-05-21T03:42:14.494Z,7.50
2023-05-21T03:44:48.815Z,8.00
2023-05-21T03:47:36.241Z,5.90
2023-05-21T03:50:09.529Z,3.90
2023-05-21T03:52:45.493Z,6.60
2023-05-21T03:55:16.040Z,5.40
2023-05-21T03:57:44.247Z,7.20
2023-05-21T04:00:12.835Z,8.80
2023-05-21T04:02:47.731Z,5.70
2023-05-21T04:05:17.532Z,10.00
2023-05-21T04:07:46.624Z,8.30
2023-05-21T04:10:14.609Z,9.60
2023-05-21T04:12:41.879Z,7.90
2023-05-21T04:15:11.443Z,10.00
2023-05-21T04:17:40.152Z,7.20
2023-05-21T04:20:09.535Z,6.10
2023-05-21T04:22:36.688Z,6.50
2023-05-21T04:25:04.258Z,8.30
2023-05-21T04:27:35.400Z,6.50
2023-05-21T04:30:04.553Z,6.00
2023-05-21T04:32:35.136Z,6.80
2023-05-21T04:35:02.985Z,7.30
2023-05-21T04:37:31.658Z,6.10
2023-05-21T04:39:59.363Z,6.70
2023-05-21T04:42:26.835Z,7.90
2023-05-21T04:44:55.596Z,7.20
2023-05-21T04:47:22.999Z,5.60
2023-05-21T04:49:51.790Z,5.30
2023-05-21T04:52:19.011Z,5.70
2023-05-21T04:54:46.141Z,5.60
2023-05-21T04:57:13.434Z,5.40
2023-05-21T04:59:41.536Z,5.80
2023-05-21T05:02:09.196Z,4.20
2023-05-21T05:04:36.887Z,5.40
2023-05-21T05:07:04.087Z,5.70
2023-05-21T05:09:31.837Z,4.70
2023-05-21T05:11:59.135Z,5.10
2023-05-21T05:14:26.361Z,7.50
2023-05-21T05:16:54.591Z,4.20
2023-05-21T05:19:22.074Z,6.10
2023-05-21T05:21:49.503Z,6.20
2023-05-21T05:24:17.031Z,5.60
2023-05-21T05:26:44.500Z,6.30
2023-05-21T05:29:12.042Z,6.20
2023-05-21T05:31:39.200Z,11.10
2023-05-21T05:34:06.520Z,10.50
2023-05-21T05:36:33.843Z,6.30
2023-05-21T05:39:03.233Z,5.20
2023-05-21T05:41:30.548Z,6.70
2023-05-21T05:43:57.744Z,4.50
2023-05-21T05:46:27.497Z,4.50
2023-05-21T05:48:55.007Z,5.20
2023-05-21T05:51:22.162Z,8.00
2023-05-21T05:53:49.418Z,2.80
2023-05-21T05:56:17.559Z,3.70
2023-05-21T05:58:44.977Z,5.10
2023-05-21T06:01:14.509Z,4.70
2023-05-21T06:03:41.963Z,7.00
2023-05-21T06:06:12.265Z,7.40
2023-05-21T06:08:40.681Z,6.10
2023-05-21T06:11:08.006Z,6.30
2023-05-21T06:13:35.196Z,4.30
2023-05-21T06:16:02.615Z,4.10
2023-05-21T06:18:30.186Z,6.20
2023-05-21T06:20:57.820Z,6.10
2023-05-21T06:23:25.301Z,5.10
2023-05-21T06:25:53.531Z,3.10
2023-05-21T06:28:21.081Z,4.20
2023-05-21T06:30:48.955Z,3.80
2023-05-21T06:33:16.464Z,4.70
2023-05-21T06:35:44.311Z,8.60
2023-05-21T06:38:11.671Z,7.80
2023-05-21T06:40:39.000Z,3.70
2023-05-21T06:43:06.686Z,3.80
2023-05-21T06:45:59.702Z,4.00
2023-05-21T06:48:36.193Z,4.30
2023-05-21T06:51:03.944Z,2.80
2023-05-21T06:53:31.162Z,5.10
2023-05-21T06:55:58.452Z,5.40
2023-05-21T06:58:36.347Z,6.70
2023-05-21T07:01:04.953Z,3.30
2023-05-21T07:03:32.493Z,5.00
2023-05-21T07:06:00.425Z,6.30
2023-05-21T07:08:28.026Z,3.80
2023-05-21T07:10:56.564Z,4.40
2023-05-21T07:13:24.098Z,5.20
2023-05-21T07:15:51.446Z,3.80
2023-05-21T07:18:18.578Z,6.10
2023-05-21T07:20:46.080Z,4.60
2023-05-21T07:23:15.121Z,6.00
2023-05-21T07:25:42.476Z,3.20
2023-05-21T07:28:10.235Z,3.70
2023-05-21T07:30:37.403Z,6.80
2023-05-21T07:33:07.524Z,4.10
2023-05-21T07:35:36.128Z,5.80
2023-05-21T07:38:04.166Z,44.80
2023-05-21T07:40:31.409Z,61.60
2023-05-21T07:42:58.868Z,46.80
2023-05-21T07:45:28.476Z,36.90
2023-05-21T07:47:56.271Z,10.10
2023-05-21T07:50:23.641Z,13.00
2023-05-21T07:52:50.923Z,5.30
2023-05-21T07:55:18.930Z,5.70
2023-05-21T07:57:46.995Z,4.40
2023-05-21T08:00:18.147Z,6.30
2023-05-21T08:02:49.979Z,10.40
2023-05-21T08:05:17.632Z,6.30
2023-05-21T08:07:45.008Z,4.60
2023-05-21T08:10:13.279Z,5.40
2023-05-21T08:12:40.961Z,23.30
2023-05-21T08:15:09.912Z,4.50
2023-05-21T08:17:41.341Z,16.40
2023-05-21T08:20:10.808Z,8.30
2023-05-21T08:22:38.159Z,6.80
2023-05-21T08:25:06.225Z,5.40
2023-05-21T08:27:33.533Z,4.90
2023-05-21T08:30:00.941Z,5.00
2023-05-21T08:32:28.459Z,5.00
2023-05-21T08:34:55.754Z,6.70
2023-05-21T08:37:38.473Z,16.10
2023-05-21T08:40:32.451Z,6.40
2023-05-21T08:42:59.937Z,3.00
2023-05-21T08:45:40.696Z,4.50
2023-05-21T08:48:10.532Z,4.70
2023-05-21T08:50:38.865Z,4.90
2023-05-21T08:53:23.374Z,6.40
2023-05-21T08:55:57.718Z,3.80
2023-05-21T09:00:59.153Z,4.60
2023-05-21T09:03:27.361Z,5.20
2023-05-21T09:05:55.229Z,2.80
2023-05-21T09:08:28.688Z,2.80
2023-05-21T09:11:00.312Z,2.30
2023-05-21T09:13:32.982Z,3.10
2023-05-21T09:16:00.858Z,3.80
2023-05-21T09:18:28.956Z,5.70
2023-05-21T09:21:26.655Z,6.60
2023-05-21T09:24:01.936Z,6.50
2023-05-21T09:26:30.103Z,4.50
2023-05-21T09:29:02.414Z,5.20
2023-05-21T09:31:30.913Z,5.00
2023-05-21T09:33:58.137Z,7.30
2023-05-21T09:36:25.996Z,3.30
2023-05-21T09:38:54.652Z,3.70
2023-05-21T09:41:22.940Z,7.40
2023-05-21T09:43:50.993Z,4.70
2023-05-21T09:46:22.010Z,5.60
2023-05-21T09:48:49.404Z,8.10
2023-05-21T09:51:19.846Z,5.60
2023-05-21T09:53:54.689Z,7.90
2023-05-21T09:56:24.825Z,5.00
2023-05-21T09:58:55.768Z,4.70
2023-05-21T10:01:24.777Z,7.90
2023-05-21T10:03:56.322Z,11.40
2023-05-21T10:06:25.622Z,6.40
2023-05-21T10:08:56.112Z,5.60
2023-05-21T10:11:26.652Z,5.70
2023-05-21T10:13:59.245Z,6.30
2023-05-21T10:16:26.770Z,2.50
2023-05-21T10:18:55.565Z,7.00
2023-05-21T10:21:24.485Z,6.60
2023-05-21T10:23:52.518Z,4.80
2023-05-21T10:26:21.888Z,4.20
2023-05-21T10:28:50.098Z,4.40
2023-05-21T10:31:17.860Z,6.40
2023-05-21T10:33:46.309Z,7.90
2023-05-21T10:36:14.016Z,3.50
2023-05-21T10:38:42.211Z,6.10
2023-05-21T10:41:11.070Z,2.80
2023-05-21T10:43:57.948Z,4.70
2023-05-21T10:46:47.369Z,8.10
2023-05-21T10:49:45.585Z,2.60
2023-05-21T10:52:26.464Z,5.90
2023-05-21T10:55:10.757Z,5.20
2023-05-21T10:57:54.079Z,9.10
2023-05-21T11:00:22.293Z,5.10
2023-05-21T11:02:52.053Z,4.80
2023-05-21T11:05:36.277Z,5.30
2023-05-21T11:08:03.680Z,8.50
2023-05-21T11:10:41.191Z,2.80
2023-05-21T11:13:14.598Z,2.80
2023-05-21T11:16:07.521Z,4.40
2023-05-21T11:19:04.025Z,4.10
2023-05-21T11:21:35.723Z,2.90
2023-05-21T11:24:11.322Z,10.80
2023-05-21T11:27:05.147Z,10.30
2023-05-21T11:29:44.394Z,4.70
2023-05-21T11:32:13.946Z,7.20
2023-05-21T11:34:43.604Z,4.90
2023-05-21T11:37:40.811Z,7.60
2023-05-21T11:40:22.606Z,5.90
2023-05-21T11:42:54.751Z,8.30
2023-05-21T11:45:23.786Z,2.70
2023-05-21T11:47:52.882Z,6.80
2023-05-21T11:50:20.975Z,3.20
2023-05-21T11:52:48.338Z,4.60
2023-05-21T11:55:16.925Z,3.30
2023-05-21T11:57:48.157Z,13.30
2023-05-21T12:00:19.189Z,6.70
2023-05-21T12:02:52.202Z,6.00
2023-05-21T12:05:20.458Z,19.40
2023-05-21T12:07:51.161Z,12.30
2023-05-21T12:10:18.453Z,4.50
2023-05-21T12:12:54.569Z,6.40
2023-05-21T12:15:23.117Z,7.50
2023-05-21T12:17:53.355Z,4.50
2023-05-21T12:20:21.283Z,5.20
2023-05-21T12:22:49.877Z,7.30
2023-05-21T12:25:20.308Z,3.00
2023-05-21T12:27:47.953Z,2.40
2023-05-21T12:30:15.830Z,2.20
2023-05-21T12:32:45.807Z,5.30
2023-05-21T12:35:24.258Z,21.00
2023-05-21T12:37:52.468Z,6.60
2023-05-21T12:40:20.227Z,5.70
2023-05-21T12:42:47.459Z,4.40
2023-05-21T12:45:18.797Z,6.60
2023-05-21T12:47:56.555Z,3.20
2023-05-21T12:50:26.513Z,7.20
2023-05-21T12:52:57.212Z,6.50
2023-05-21T12:55:25.646Z,4.20
2023-05-21T12:58:01.687Z,3.50
2023-05-21T13:00:29.136Z,6.30
2023-05-21T13:02:57.385Z,4.40
2023-05-21T13:05:24.976Z,2.80
2023-05-21T13:07:52.338Z,3.30
2023-05-21T13:10:20.213Z,6.90
2023-05-21T13:12:48.099Z,5.20
2023-05-21T13:15:16.034Z,5.00
2023-05-21T13:17:43.616Z,4.70
2023-05-21T13:20:13.413Z,9.80
2023-05-21T13:22:42.891Z,2.20
2023-05-21T13:25:12.312Z,7.60
2023-05-21T13:27:39.906Z,7.50
2023-05-21T13:30:09.608Z,4.00
2023-05-21T13:32:37.495Z,5.60
2023-05-21T13:35:05.351Z,9.40
2023-05-21T13:37:32.818Z,4.90
2023-05-21T13:40:00.310Z,10.00
2023-05-21T13:42:27.615Z,2.50
2023-05-21T13:44:54.844Z,2.40
2023-05-21T13:47:24.056Z,4.90
2023-05-21T13:49:52.198Z,9.70
2023-05-21T13:52:19.878Z,2.60
2023-05-21T13:54:48.068Z,5.30
2023-05-21T13:57:15.293Z,3.20
2023-05-21T13:59:42.682Z,6.40
2023-05-21T14:02:11.614Z,4.10
2023-05-21T14:04:39.663Z,6.60
2023-05-21T14:07:07.785Z,3.80
2023-05-21T14:09:35.957Z,3.00
2023-05-21T14:12:06.430Z,4.30
2023-05-21T14:14:33.992Z,4.90
2023-05-21T14:17:01.923Z,4.00
2023-05-21T14:19:29.405Z,4.00
2023-05-21T14:21:56.732Z,6.90
2023-05-21T14:24:23.911Z,4.00
2023-05-21T14:26:51.051Z,6.40
2023-05-21T14:29:18.802Z,9.20
2023-05-21T14:31:46.895Z,3.00
2023-05-21T14:34:14.160Z,5.70
2023-05-21T14:36:41.306Z,5.20
2023-05-21T14:39:08.580Z,4.20
2023-05-21T14:41:39.574Z,4.60
2023-05-21T14:44:07.151Z,5.10
2023-05-21T14:46:34.607Z,4.20
2023-05-21T14:49:03.504Z,6.40
2023-05-21T14:51:31.689Z,4.20
2023-05-21T14:53:59.227Z,5.60
2023-05-21T14:56:27.978Z,5.20
2023-05-21T14:58:55.704Z,4.70
2023-05-21T15:01:23.351Z,4.10
2023-05-21T15:03:51.355Z,4.10
2023-05-21T15:06:18.955Z,3.40
2023-05-21T15:08:46.541Z,8.00
2023-05-21T15:11:13.691Z,5.90
2023-05-21T15:13:41.525Z,6.10
2023-05-21T15:16:09.460Z,3.70
2023-05-21T15:18:36.650Z,2.60
2023-05-21T15:21:04.001Z,2.60
2023-05-21T15:23:32.387Z,3.40
2023-05-21T15:25:59.642Z,4.30
2023-05-21T15:28:26.829Z,6.80
2023-05-21T15:30:54.266Z,6.90
2023-05-21T15:33:21.607Z,4.40
2023-05-21T15:35:49.144Z,4.90
2023-05-21T15:38:16.336Z,4.00
2023-05-21T15:40:43.663Z,8.20
2023-05-21T15:43:10.940Z,2.90
2023-05-21T15:45:39.690Z,7.20
2023-05-21T15:48:08.381Z,7.20
2023-05-21T15:50:36.261Z,5.50
2023-05-21T15:53:04.469Z,3.50
2023-05-21T15:55:35.290Z,6.90
2023-05-21T15:58:10.442Z,5.60
2023-05-21T16:00:38.242Z,4.30
2023-05-21T16:03:05.714Z,7.40
2023-05-21T16:05:33.123Z,4.10
2023-05-21T16:08:00.578Z,3.40
2023-05-21T16:10:27.905Z,2.90
2023-05-21T16:12:55.185Z,3.50
2023-05-21T16:15:22.749Z,5.10
2023-05-21T16:17:50.017Z,3.90
2023-05-21T16:20:18.905Z,3.80
2023-05-21T16:22:46.207Z,2.90
2023-05-21T16:25:13.581Z,2.90
2023-05-21T16:27:41.021Z,5.50
2023-05-21T16:30:11.926Z,4.00
2023-05-21T16:32:39.695Z,4.80
2023-05-21T16:35:08.564Z,8.90
2023-05-21T16:37:35.957Z,4.00
2023-05-21T16:40:03.036Z,5.20
2023-05-21T16:42:30.383Z,7.60
2023-05-21T16:44:57.622Z,10.30
2023-05-21T16:47:25.378Z,6.20
2023-05-21T16:49:52.807Z,3.90
2023-05-21T16:52:20.030Z,3.30
2023-05-21T16:54:49.011Z,4.70
2023-05-21T16:57:16.473Z,4.40
2023-05-21T16:59:45.264Z,4.40
2023-05-21T17:02:14.146Z,7.30
2023-05-21T17:04:41.667Z,9.40
2023-05-21T17:07:09.374Z,2.90
2023-05-21T17:09:36.811Z,5.90
2023-05-21T17:12:04.336Z,10.20
2023-05-21T17:14:34.915Z,6.90
2023-05-21T17:17:02.983Z,4.30
2023-05-21T17:19:30.590Z,5.60
2023-05-21T17:21:59.014Z,4.70
2023-05-21T17:24:26.185Z,6.60
2023-05-21T17:26:53.650Z,5.20
2023-05-21T17:29:20.804Z,4.20
2023-05-21T17:31:48.034Z,2.90
2023-05-21T17:34:16.739Z,8.50
2023-05-21T17:36:43.920Z,5.10
2023-05-21T17:39:11.105Z,5.00
2023-05-21T17:41:38.375Z,6.20
2023-05-21T17:44:05.742Z,3.00
2023-05-21T17:46:32.985Z,6.50
2023-05-21T17:49:00.143Z,5.80
2023-05-21T17:51:27.585Z,6.20
2023-05-21T17:53:54.752Z,3.80
2023-05-21T17:56:22.370Z,5.90
2023-05-21T17:58:50.359Z,4.30
2023-05-21T18:01:17.998Z,4.30
2023-05-21T18:03:45.305Z,3.80
2023-05-21T18:06:12.740Z,3.10
2023-05-21T18:08:39.872Z,4.60
2023-05-21T18:11:07.248Z,8.10
2023-05-21T18:13:34.460Z,5.00
2023-05-21T18:16:02.199Z,5.30
2023-05-21T18:18:29.619Z,4.00
2023-05-21T18:20:57.008Z,8.10
2023-05-21T18:23:24.234Z,8.40
2023-05-21T18:25:51.882Z,3.80
2023-05-21T18:28:19.243Z,8.70
2023-05-21T18:30:46.424Z,5.20
2023-05-21T18:33:15.393Z,3.30
2023-05-21T18:35:42.688Z,6.60
2023-05-21T18:38:10.266Z,4.30
2023-05-21T18:40:37.844Z,5.60
2023-05-21T18:43:06.414Z,8.90
2023-05-21T18:45:33.696Z,4.10
2023-05-21T18:48:01.030Z,8.20
2023-05-21T18:50:28.600Z,8.30
2023-05-21T18:52:57.957Z,3.20
2023-05-21T18:55:25.400Z,6.80
2023-05-21T18:57:52.555Z,6.90
2023-05-21T19:00:20.972Z,6.20
2023-05-21T19:02:48.622Z,7.20
2023-05-21T19:05:16.648Z,5.00
2023-05-21T19:07:43.756Z,6.60
2023-05-21T19:10:14.628Z,6.80
2023-05-21T19:12:42.621Z,9.50
2023-05-21T19:15:12.098Z,4.40
2023-05-21T19:17:39.946Z,6.90
2023-05-21T19:20:09.965Z,10.40
2023-05-21T19:22:38.156Z,6.50
2023-05-21T19:25:05.896Z,3.50
2023-05-21T19:27:33.053Z,7.90
2023-05-21T19:30:00.365Z,5.10
2023-05-21T19:32:27.651Z,5.40
2023-05-21T19:34:54.962Z,6.80
2023-05-21T19:37:22.489Z,6.70
2023-05-21T19:39:50.462Z,6.00
2023-05-21T19:42:18.276Z,5.30
2023-05-21T19:44:45.597Z,12.40
2023-05-21T19:47:12.712Z,10.60
2023-05-21T19:49:40.226Z,7.30
2023-05-21T19:52:07.890Z,4.80
2023-05-21T19:54:35.391Z,4.90
2023-05-21T19:57:02.610Z,4.00
2023-05-21T19:59:29.733Z,8.40
2023-05-21T20:01:56.881Z,4.30
2023-05-21T20:04:24.330Z,6.80
2023-05-21T20:06:52.157Z,6.30
2023-05-21T20:09:19.399Z,7.30
2023-05-21T20:11:48.369Z,12.10
2023-05-21T20:14:18.369Z,10.20
2023-05-21T20:16:47.290Z,7.40
2023-05-21T20:19:15.461Z,5.90
2023-05-21T20:21:43.262Z,7.00
2023-05-21T20:24:11.487Z,7.40
2023-05-21T20:26:40.243Z,8.40
2023-05-21T20:29:08.304Z,8.00
2023-05-21T20:31:36.040Z,8.60
2023-05-21T20:34:07.320Z,8.40
2023-05-21T20:36:35.190Z,8.60
2023-05-21T20:39:02.517Z,8.80
2023-05-21T20:41:35.727Z,8.00
2023-05-21T20:44:06.938Z,6.50
2023-05-21T20:46:34.397Z,9.50
2023-05-21T20:49:02.296Z,7.00
2023-05-21T20:51:30.053Z,7.50
2023-05-21T20:53:57.278Z,6.60
2023-05-21T20:56:40.001Z,8.20
2023-05-21T20:59:10.461Z,9.80
2023-05-21T21:01:40.837Z,11.50
2023-05-21T21:04:09.058Z,12.10
2023-05-21T21:06:38.671Z,6.00
2023-05-21T21:09:06.432Z,8.00
2023-05-21T21:11:33.913Z,10.50
2023-05-21T21:14:02.745Z,10.80
2023-05-21T21:16:30.385Z,9.60
2023-05-21T21:18:57.912Z,11.70
2023-05-21T21:21:25.266Z,9.50
2023-05-21T21:23:52.715Z,11.10
2023-05-21T21:26:22.135Z,8.10
2023-05-21T21:28:49.297Z,7.90
2023-05-21T21:31:18.149Z,9.70
2023-05-21T21:33:45.675Z,8.40
2023-05-21T21:36:14.733Z,6.90
2023-05-21T21:38:41.891Z,11.40
2023-05-21T21:41:09.221Z,6.70
2023-05-21T21:43:46.099Z,8.40
2023-05-21T21:46:13.474Z,8.00
2023-05-21T21:48:40.608Z,11.90
2023-05-21T21:51:08.326Z,9.50
2023-05-21T21:53:35.561Z,8.70
2023-05-21T21:56:02.965Z,9.40
2023-05-21T21:58:30.164Z,8.70
2023-05-21T22:00:57.472Z,12.80
2023-05-21T22:03:24.820Z,12.40
2023-05-21T22:05:52.503Z,13.70
2023-05-21T22:08:20.008Z,13.60
2023-05-21T22:10:47.300Z,11.20
2023-05-21T22:13:14.562Z,10.50
2023-05-21T22:15:41.702Z,11.90
2023-05-21T22:18:10.362Z,6.80
2023-05-21T22:23:05.341Z,8.50
2023-05-21T22:25:32.468Z,8.00
2023-05-21T22:27:59.750Z,11.80
2023-05-21T22:30:27.101Z,8.70
2023-05-21T22:32:54.441Z,9.60
2023-05-21T22:35:21.575Z,9.90
2023-05-21T22:37:48.733Z,8.30
2023-05-21T22:40:16.636Z,9.80
2023-05-21T22:42:43.951Z,10.90
2023-05-21T22:45:12.943Z,10.30
2023-05-21T22:47:40.749Z,9.90
2023-05-21T22:50:11.364Z,10.60
2023-05-21T22:52:39.610Z,11.00
2023-05-21T22:55:09.681Z,13.40
2023-05-21T22:57:36.811Z,8.70
2023-05-21T23:00:07.043Z,16.30
2023-05-21T23:02:34.225Z,6.90
2023-05-21T23:05:02.160Z,8.60
2023-05-21T23:07:29.401Z,12.90
2023-05-21T23:09:57.441Z,7.40
2023-05-21T23:12:24.793Z,10.70
2023-05-21T23:14:52.357Z,9.10
2023-05-21T23:17:19.713Z,10.40
2023-05-21T23:19:50.242Z,11.60
2023-05-21T23:22:17.903Z,9.00
2023-05-21T23:24:45.054Z,12.70
2023-05-21T23:27:12.303Z,9.30
2023-05-21T23:29:39.763Z,12.60
2023-05-21T23:32:08.111Z,10.90
2023-05-21T23:34:35.406Z,9.90
2023-05-21T23:37:03.079Z,8.90
2023-05-21T23:39:30.945Z,9.90
2023-05-21T23:41:58.298Z,11.10
2023-05-21T23:44:25.802Z,10.90
2023-05-21T23:46:53.203Z,6.40
2023-05-21T23:49:20.349Z,8.00
2023-05-21T23:51:51.011Z,6.70
2023-05-21T23:54:18.643Z,10.20
2023-05-21T23:56:46.512Z,8.40
2023-05-21T23:59:15.033Z,12.60
